sensor_id;sensor_type;location;lat;lon;timestamp;temperature;humidity
30069;DHT22;16894;49.456;10.644;2023-05-10T00:00:10;13.90;99.90
30069;DHT22;16894;49.456;10.644;2023-05-10T00:02:36;13.90;99.90
30069;DHT22;16894;49.456;10.644;2023-05-10T00:05:01;13.90;99.90
30069;DHT22;16894;49.456;10.644;2023-05-10T00:07:27;13.90;99.90
30069;DHT22;16894;49.456;10.644;2023-05-10T00:09:52;13.80;99.90
30069;DHT22;16894;49.456;10.644;2023-05-10T00:12:18;13.80;99.90
30069;DHT22;16894;49.456;10.644;2023-05-10T00:14:44;13.80;99.90
30069;DHT22;16894;49.456;10.644;2023-05-10T00:17:10;13.80;99.90
30069;DHT22;16894;49.456;10.644;2023-05-10T00:19:36;13.90;99.90
30069;DHT22;16894;49.456;10.644;2023-05-10T00:22:01;13.90;99.90
30069;DHT22;16894;49.456;10.644;2023-05-10T00:24:27;13.80;99.90
30069;DHT22;16894;49.456;10.644;2023-05-10T00:26:52;13.80;99.90
30069;DHT22;16894;49.456;10.644;2023-05-10T00:29:18;13.80;99.90
30069;DHT22;16894;49.456;10.644;2023-05-10T00:31:44;13.80;99.90
30069;DHT22;16894;49.456;10.644;2023-05-10T00:34:10;13.70;99.90
30069;DHT22;16894;49.456;10.644;2023-05-10T00:36:36;13.70;99.90
30069;DHT22;16894;49.456;10.644;2023-05-10T00:39:02;13.80;99.90
30069;DHT22;16894;49.456;10.644;2023-05-10T00:41:29;13.70;99.90
30069;DHT22;16894;49.456;10.644;2023-05-10T00:43:57;13.70;99.90
30069;DHT22;16894;49.456;10.644;2023-05-10T00:46:23;13.70;99.90
30069;DHT22;16894;49.456;10.644;2023-05-10T00:48:49;13.70;99.90
30069;DHT22;16894;49.456;10.644;2023-05-10T00:51:15;13.70;99.90
30069;DHT22;16894;49.456;10.644;2023-05-10T00:53:41;13.60;99.90
30069;DHT22;16894;49.456;10.644;2023-05-10T00:56:06;13.60;99.90
30069;DHT22;16894;49.456;10.644;2023-05-10T00:58:33;13.70;99.90
30069;DHT22;16894;49.456;10.644;2023-05-10T01:00:59;13.60;99.90
30069;DHT22;16894;49.456;10.644;2023-05-10T01:03:26;13.60;99.90
30069;DHT22;16894;49.456;10.644;2023-05-10T01:05:51;13.70;99.90
30069;DHT22;16894;49.456;10.644;2023-05-10T01:08:17;13.70;99.90
30069;DHT22;16894;49.456;10.644;2023-05-10T01:10:44;13.70;99.90
30069;DHT22;16894;49.456;10.644;2023-05-10T01:13:11;13.70;99.90
30069;DHT22;16894;49.456;10.644;2023-05-10T01:15:36;13.70;99.90
30069;DHT22;16894;49.456;10.644;2023-05-10T01:18:03;13.70;99.90
30069;DHT22;16894;49.456;10.644;2023-05-10T01:20:44;13.60;99.90
30069;DHT22;16894;49.456;10.644;2023-05-10T01:23:32;13.60;99.90
30069;DHT22;16894;49.456;10.644;2023-05-10T01:31:28;13.60;99.90
30069;DHT22;16894;49.456;10.644;2023-05-10T01:34:04;13.60;99.90
30069;DHT22;16894;49.456;10.644;2023-05-10T01:36:40;13.60;99.90
30069;DHT22;16894;49.456;10.644;2023-05-10T01:39:15;13.60;99.90
30069;DHT22;16894;49.456;10.644;2023-05-10T01:41:54;13.60;99.90
30069;DHT22;16894;49.456;10.644;2023-05-10T01:44:35;13.50;99.90
30069;DHT22;16894;49.456;10.644;2023-05-10T01:47:10;13.50;99.90
30069;DHT22;16894;49.456;10.644;2023-05-10T01:49:52;13.60;99.90
30069;DHT22;16894;49.456;10.644;2023-05-10T01:52:21;13.60;99.90
30069;DHT22;16894;49.456;10.644;2023-05-10T01:55:24;13.60;99.90
30069;DHT22;16894;49.456;10.644;2023-05-10T01:57:44;13.60;99.90
30069;DHT22;16894;49.456;10.644;2023-05-10T02:00:13;13.70;99.90
30069;DHT22;16894;49.456;10.644;2023-05-10T02:02:42;13.60;99.90
30069;DHT22;16894;49.456;10.644;2023-05-10T02:05:12;13.70;99.90
30069;DHT22;16894;49.456;10.644;2023-05-10T02:07:39;13.60;99.90
30069;DHT22;16894;49.456;10.644;2023-05-10T02:10:06;13.60;99.90
30069;DHT22;16894;49.456;10.644;2023-05-10T02:12:36;13.60;99.90
30069;DHT22;16894;49.456;10.644;2023-05-10T02:15:05;13.50;99.90
30069;DHT22;16894;49.456;10.644;2023-05-10T02:17:32;13.40;99.90
30069;DHT22;16894;49.456;10.644;2023-05-10T02:20:01;13.30;99.90
30069;DHT22;16894;49.456;10.644;2023-05-10T02:22:27;13.30;99.90
30069;DHT22;16894;49.456;10.644;2023-05-10T02:24:58;13.20;99.90
30069;DHT22;16894;49.456;10.644;2023-05-10T02:27:25;13.20;99.90
30069;DHT22;16894;49.456;10.644;2023-05-10T02:29:53;13.20;99.90
30069;DHT22;16894;49.456;10.644;2023-05-10T02:32:20;13.20;99.90
30069;DHT22;16894;49.456;10.644;2023-05-10T02:34:47;13.10;99.90
30069;DHT22;16894;49.456;10.644;2023-05-10T02:37:19;13.20;99.90
30069;DHT22;16894;49.456;10.644;2023-05-10T02:39:50;13.20;99.90
30069;DHT22;16894;49.456;10.644;2023-05-10T02:42:18;13.30;99.90
30069;DHT22;16894;49.456;10.644;2023-05-10T02:44:49;13.30;99.90
30069;DHT22;16894;49.456;10.644;2023-05-10T02:47:16;13.20;99.90
30069;DHT22;16894;49.456;10.644;2023-05-10T02:49:42;13.20;99.90
30069;DHT22;16894;49.456;10.644;2023-05-10T02:52:08;13.20;99.90
30069;DHT22;16894;49.456;10.644;2023-05-10T02:54:44;13.20;99.90
30069;DHT22;16894;49.456;10.644;2023-05-10T02:57:19;13.20;99.90
30069;DHT22;16894;49.456;10.644;2023-05-10T02:59:47;13.10;99.90
30069;DHT22;16894;49.456;10.644;2023-05-10T03:02:13;13.10;99.90
30069;DHT22;16894;49.456;10.644;2023-05-10T03:04:38;13.10;99.90
30069;DHT22;16894;49.456;10.644;2023-05-10T03:07:04;13.00;99.90
30069;DHT22;16894;49.456;10.644;2023-05-10T03:09:31;13.00;99.90
30069;DHT22;16894;49.456;10.644;2023-05-10T03:15:12;13.00;99.90
30069;DHT22;16894;49.456;10.644;2023-05-10T03:18:04;12.90;99.90
30069;DHT22;16894;49.456;10.644;2023-05-10T03:20:36;13.00;99.90
30069;DHT22;16894;49.456;10.644;2023-05-10T03:25:47;12.90;99.90
30069;DHT22;16894;49.456;10.644;2023-05-10T03:28:14;12.90;99.90
30069;DHT22;16894;49.456;10.644;2023-05-10T03:30:41;12.80;99.90
30069;DHT22;16894;49.456;10.644;2023-05-10T03:33:08;12.70;99.90
30069;DHT22;16894;49.456;10.644;2023-05-10T03:35:34;12.60;99.90
30069;DHT22;16894;49.456;10.644;2023-05-10T03:38:00;12.60;99.90
30069;DHT22;16894;49.456;10.644;2023-05-10T03:40:26;12.60;99.90
30069;DHT22;16894;49.456;10.644;2023-05-10T03:42:55;12.50;99.90
30069;DHT22;16894;49.456;10.644;2023-05-10T03:45:20;12.40;99.90
30069;DHT22;16894;49.456;10.644;2023-05-10T03:47:46;12.30;99.90
30069;DHT22;16894;49.456;10.644;2023-05-10T03:50:12;12.30;99.90
30069;DHT22;16894;49.456;10.644;2023-05-10T03:52:37;12.20;99.90
30069;DHT22;16894;49.456;10.644;2023-05-10T03:55:05;12.30;99.90
30069;DHT22;16894;49.456;10.644;2023-05-10T03:57:30;12.30;99.90
30069;DHT22;16894;49.456;10.644;2023-05-10T03:59:56;12.30;99.90
30069;DHT22;16894;49.456;10.644;2023-05-10T04:02:22;12.20;99.90
30069;DHT22;16894;49.456;10.644;2023-05-10T04:04:47;12.30;99.90
30069;DHT22;16894;49.456;10.644;2023-05-10T04:07:13;12.20;99.90
30069;DHT22;16894;49.456;10.644;2023-05-10T04:09:40;12.20;99.90
30069;DHT22;16894;49.456;10.644;2023-05-10T04:12:05;12.20;99.90
30069;DHT22;16894;49.456;10.644;2023-05-10T04:14:31;12.10;99.90
30069;DHT22;16894;49.456;10.644;2023-05-10T04:16:57;12.10;99.90
30069;DHT22;16894;49.456;10.644;2023-05-10T04:19:23;12.10;99.90
30069;DHT22;16894;49.456;10.644;2023-05-10T04:21:49;12.10;99.90
30069;DHT22;16894;49.456;10.644;2023-05-10T04:24:14;12.10;99.90
30069;DHT22;16894;49.456;10.644;2023-05-10T04:26:40;12.10;99.90
30069;DHT22;16894;49.456;10.644;2023-05-10T04:29:06;12.10;99.90
30069;DHT22;16894;49.456;10.644;2023-05-10T04:31:32;12.20;99.90
30069;DHT22;16894;49.456;10.644;2023-05-10T04:33:57;12.20;99.90
30069;DHT22;16894;49.456;10.644;2023-05-10T04:36:23;12.20;99.90
30069;DHT22;16894;49.456;10.644;2023-05-10T04:38:49;12.20;99.90
30069;DHT22;16894;49.456;10.644;2023-05-10T04:41:14;12.20;99.90
30069;DHT22;16894;49.456;10.644;2023-05-10T04:43:40;12.20;99.90
30069;DHT22;16894;49.456;10.644;2023-05-10T04:46:06;12.30;99.90
30069;DHT22;16894;49.456;10.644;2023-05-10T04:48:32;12.40;99.90
30069;DHT22;16894;49.456;10.644;2023-05-10T04:50:58;12.40;99.90
30069;DHT22;16894;49.456;10.644;2023-05-10T04:53:24;12.40;99.90
30069;DHT22;16894;49.456;10.644;2023-05-10T04:55:50;12.30;99.90
30069;DHT22;16894;49.456;10.644;2023-05-10T04:58:16;12.30;99.90
30069;DHT22;16894;49.456;10.644;2023-05-10T05:00:41;12.40;99.90
30069;DHT22;16894;49.456;10.644;2023-05-10T05:03:07;12.40;99.90
30069;DHT22;16894;49.456;10.644;2023-05-10T05:05:33;12.50;99.90
30069;DHT22;16894;49.456;10.644;2023-05-10T05:07:59;12.50;99.90
30069;DHT22;16894;49.456;10.644;2023-05-10T05:10:24;12.60;99.90
30069;DHT22;16894;49.456;10.644;2023-05-10T05:12:50;12.60;99.90
30069;DHT22;16894;49.456;10.644;2023-05-10T05:15:16;12.60;99.90
30069;DHT22;16894;49.456;10.644;2023-05-10T05:17:42;12.60;99.90
30069;DHT22;16894;49.456;10.644;2023-05-10T05:20:08;12.70;99.90
30069;DHT22;16894;49.456;10.644;2023-05-10T05:22:36;12.70;99.90
30069;DHT22;16894;49.456;10.644;2023-05-10T05:25:01;12.80;99.90
30069;DHT22;16894;49.456;10.644;2023-05-10T05:27:29;12.80;99.90
30069;DHT22;16894;49.456;10.644;2023-05-10T05:29:58;12.80;99.90
30069;DHT22;16894;49.456;10.644;2023-05-10T05:32:24;12.80;99.90
30069;DHT22;16894;49.456;10.644;2023-05-10T05:34:50;12.90;99.90
30069;DHT22;16894;49.456;10.644;2023-05-10T05:37:18;12.90;99.90
30069;DHT22;16894;49.456;10.644;2023-05-10T05:39:44;13.00;99.90
30069;DHT22;16894;49.456;10.644;2023-05-10T05:42:10;13.10;99.90
30069;DHT22;16894;49.456;10.644;2023-05-10T05:44:36;13.00;99.90
30069;DHT22;16894;49.456;10.644;2023-05-10T05:47:02;13.10;99.90
30069;DHT22;16894;49.456;10.644;2023-05-10T05:49:27;13.10;99.90
30069;DHT22;16894;49.456;10.644;2023-05-10T05:51:53;13.20;99.90
30069;DHT22;16894;49.456;10.644;2023-05-10T05:54:19;13.20;99.90
30069;DHT22;16894;49.456;10.644;2023-05-10T05:56:44;13.20;99.90
30069;DHT22;16894;49.456;10.644;2023-05-10T05:59:11;13.20;99.90
30069;DHT22;16894;49.456;10.644;2023-05-10T06:01:36;13.20;99.90
30069;DHT22;16894;49.456;10.644;2023-05-10T06:04:02;13.40;99.90
30069;DHT22;16894;49.456;10.644;2023-05-10T06:06:28;13.40;99.90
30069;DHT22;16894;49.456;10.644;2023-05-10T06:08:54;13.40;99.90
30069;DHT22;16894;49.456;10.644;2023-05-10T06:11:20;13.40;99.90
30069;DHT22;16894;49.456;10.644;2023-05-10T06:13:50;13.40;99.90
30069;DHT22;16894;49.456;10.644;2023-05-10T06:16:16;13.50;99.90
30069;DHT22;16894;49.456;10.644;2023-05-10T06:18:43;13.50;99.90
30069;DHT22;16894;49.456;10.644;2023-05-10T06:21:08;13.60;99.90
30069;DHT22;16894;49.456;10.644;2023-05-10T06:23:34;13.60;99.90
30069;DHT22;16894;49.456;10.644;2023-05-10T06:26:01;13.60;99.90
30069;DHT22;16894;49.456;10.644;2023-05-10T06:28:26;13.60;99.90
30069;DHT22;16894;49.456;10.644;2023-05-10T06:30:52;13.60;99.90
30069;DHT22;16894;49.456;10.644;2023-05-10T06:33:17;13.70;99.90
30069;DHT22;16894;49.456;10.644;2023-05-10T06:35:43;13.80;99.90
30069;DHT22;16894;49.456;10.644;2023-05-10T06:38:09;13.80;99.90
30069;DHT22;16894;49.456;10.644;2023-05-10T06:40:34;13.80;99.90
30069;DHT22;16894;49.456;10.644;2023-05-10T06:43:01;13.90;99.90
30069;DHT22;16894;49.456;10.644;2023-05-10T06:45:27;13.90;99.90
30069;DHT22;16894;49.456;10.644;2023-05-10T06:47:52;13.90;99.90
30069;DHT22;16894;49.456;10.644;2023-05-10T06:50:18;13.90;99.90
30069;DHT22;16894;49.456;10.644;2023-05-10T06:52:44;13.90;99.90
30069;DHT22;16894;49.456;10.644;2023-05-10T06:55:10;13.90;99.90
30069;DHT22;16894;49.456;10.644;2023-05-10T06:57:35;14.00;99.90
30069;DHT22;16894;49.456;10.644;2023-05-10T07:00:02;14.10;99.90
30069;DHT22;16894;49.456;10.644;2023-05-10T07:02:29;14.00;99.90
30069;DHT22;16894;49.456;10.644;2023-05-10T07:04:55;14.20;99.90
30069;DHT22;16894;49.456;10.644;2023-05-10T07:07:20;14.10;99.90
30069;DHT22;16894;49.456;10.644;2023-05-10T07:09:46;14.20;99.90
30069;DHT22;16894;49.456;10.644;2023-05-10T07:12:12;14.20;99.90
30069;DHT22;16894;49.456;10.644;2023-05-10T07:14:37;14.10;99.90
30069;DHT22;16894;49.456;10.644;2023-05-10T07:17:03;14.10;99.90
30069;DHT22;16894;49.456;10.644;2023-05-10T07:19:29;14.20;99.90
30069;DHT22;16894;49.456;10.644;2023-05-10T07:21:58;14.20;99.90
30069;DHT22;16894;49.456;10.644;2023-05-10T07:24:23;14.30;99.90
30069;DHT22;16894;49.456;10.644;2023-05-10T07:26:50;14.40;99.90
30069;DHT22;16894;49.456;10.644;2023-05-10T07:29:15;14.40;99.90
30069;DHT22;16894;49.456;10.644;2023-05-10T07:31:41;14.50;99.90
30069;DHT22;16894;49.456;10.644;2023-05-10T07:34:09;14.60;99.90
30069;DHT22;16894;49.456;10.644;2023-05-10T07:36:35;14.60;99.90
30069;DHT22;16894;49.456;10.644;2023-05-10T07:39:01;14.60;99.90
30069;DHT22;16894;49.456;10.644;2023-05-10T07:41:28;14.70;99.90
30069;DHT22;16894;49.456;10.644;2023-05-10T07:43:53;14.80;99.90
30069;DHT22;16894;49.456;10.644;2023-05-10T07:46:19;14.90;99.90
30069;DHT22;16894;49.456;10.644;2023-05-10T07:48:45;14.90;99.90
30069;DHT22;16894;49.456;10.644;2023-05-10T07:51:11;14.90;99.90
30069;DHT22;16894;49.456;10.644;2023-05-10T07:53:38;14.80;99.90
30069;DHT22;16894;49.456;10.644;2023-05-10T07:56:27;14.60;99.90
30069;DHT22;16894;49.456;10.644;2023-05-10T07:59:04;14.40;99.90
30069;DHT22;16894;49.456;10.644;2023-05-10T08:01:32;14.20;99.90
30069;DHT22;16894;49.456;10.644;2023-05-10T08:03:58;14.10;99.90
30069;DHT22;16894;49.456;10.644;2023-05-10T08:06:24;14.20;99.90
30069;DHT22;16894;49.456;10.644;2023-05-10T08:08:52;14.20;99.90
30069;DHT22;16894;49.456;10.644;2023-05-10T08:11:20;14.10;99.90
30069;DHT22;16894;49.456;10.644;2023-05-10T08:13:46;14.30;99.90
30069;DHT22;16894;49.456;10.644;2023-05-10T08:16:12;14.50;99.90
30069;DHT22;16894;49.456;10.644;2023-05-10T08:18:38;14.60;99.90
30069;DHT22;16894;49.456;10.644;2023-05-10T08:21:04;14.70;99.90
30069;DHT22;16894;49.456;10.644;2023-05-10T08:23:30;14.80;99.90
30069;DHT22;16894;49.456;10.644;2023-05-10T08:25:56;14.80;99.90
30069;DHT22;16894;49.456;10.644;2023-05-10T08:28:22;14.90;99.90
30069;DHT22;16894;49.456;10.644;2023-05-10T08:30:49;15.20;99.90
30069;DHT22;16894;49.456;10.644;2023-05-10T08:33:15;15.60;99.90
30069;DHT22;16894;49.456;10.644;2023-05-10T08:35:40;15.70;99.90
30069;DHT22;16894;49.456;10.644;2023-05-10T08:38:06;15.90;99.90
30069;DHT22;16894;49.456;10.644;2023-05-10T08:40:32;16.00;99.90
30069;DHT22;16894;49.456;10.644;2023-05-10T08:43:10;16.10;99.90
30069;DHT22;16894;49.456;10.644;2023-05-10T08:45:42;16.20;99.90
30069;DHT22;16894;49.456;10.644;2023-05-10T08:48:09;16.00;99.90
30069;DHT22;16894;49.456;10.644;2023-05-10T08:50:36;16.00;99.90
30069;DHT22;16894;49.456;10.644;2023-05-10T08:53:05;16.60;99.90
30069;DHT22;16894;49.456;10.644;2023-05-10T08:55:32;17.00;99.90
30069;DHT22;16894;49.456;10.644;2023-05-10T08:57:59;17.10;99.90
30069;DHT22;16894;49.456;10.644;2023-05-10T09:00:25;17.20;99.90
30069;DHT22;16894;49.456;10.644;2023-05-10T09:02:51;17.60;99.90
30069;DHT22;16894;49.456;10.644;2023-05-10T09:05:17;17.90;99.90
30069;DHT22;16894;49.456;10.644;2023-05-10T09:07:43;17.90;99.90
30069;DHT22;16894;49.456;10.644;2023-05-10T09:10:11;17.60;99.90
30069;DHT22;16894;49.456;10.644;2023-05-10T09:12:37;17.40;99.90
30069;DHT22;16894;49.456;10.644;2023-05-10T09:15:04;17.40;99.90
30069;DHT22;16894;49.456;10.644;2023-05-10T09:17:31;17.30;99.90
30069;DHT22;16894;49.456;10.644;2023-05-10T09:20:01;17.10;99.90
30069;DHT22;16894;49.456;10.644;2023-05-10T09:22:27;16.90;99.90
30069;DHT22;16894;49.456;10.644;2023-05-10T09:25:15;17.40;99.90
30069;DHT22;16894;49.456;10.644;2023-05-10T09:27:45;18.10;99.90
30069;DHT22;16894;49.456;10.644;2023-05-10T09:32:51;19.50;99.90
30069;DHT22;16894;49.456;10.644;2023-05-10T09:35:19;19.10;99.90
30069;DHT22;16894;49.456;10.644;2023-05-10T09:37:47;18.90;99.90
30069;DHT22;16894;49.456;10.644;2023-05-10T09:40:17;18.70;99.90
30069;DHT22;16894;49.456;10.644;2023-05-10T09:45:17;17.80;99.90
30069;DHT22;16894;49.456;10.644;2023-05-10T09:47:43;17.40;99.90
30069;DHT22;16894;49.456;10.644;2023-05-10T09:50:09;17.10;99.90
30069;DHT22;16894;49.456;10.644;2023-05-10T09:52:50;16.80;99.90
30069;DHT22;16894;49.456;10.644;2023-05-10T09:55:21;16.60;99.90
30069;DHT22;16894;49.456;10.644;2023-05-10T09:57:48;16.60;99.90
30069;DHT22;16894;49.456;10.644;2023-05-10T10:00:20;16.40;99.90
30069;DHT22;16894;49.456;10.644;2023-05-10T10:02:55;16.20;99.90
30069;DHT22;16894;49.456;10.644;2023-05-10T10:05:34;16.10;99.90
30069;DHT22;16894;49.456;10.644;2023-05-10T10:08:03;16.20;99.90
30069;DHT22;16894;49.456;10.644;2023-05-10T10:10:29;16.20;99.90
30069;DHT22;16894;49.456;10.644;2023-05-10T10:12:56;16.30;99.90
30069;DHT22;16894;49.456;10.644;2023-05-10T10:15:22;16.30;99.90
30069;DHT22;16894;49.456;10.644;2023-05-10T10:17:49;16.50;99.90
30069;DHT22;16894;49.456;10.644;2023-05-10T10:20:16;16.50;99.90
30069;DHT22;16894;49.456;10.644;2023-05-10T10:22:42;16.50;99.90
30069;DHT22;16894;49.456;10.644;2023-05-10T10:25:13;16.60;99.90
30069;DHT22;16894;49.456;10.644;2023-05-10T10:30:45;16.90;99.90
30069;DHT22;16894;49.456;10.644;2023-05-10T10:35:58;17.30;99.90
30069;DHT22;16894;49.456;10.644;2023-05-10T10:38:25;17.40;99.90
30069;DHT22;16894;49.456;10.644;2023-05-10T10:41:10;17.70;99.90
30069;DHT22;16894;49.456;10.644;2023-05-10T10:49:26;17.10;99.90
30069;DHT22;16894;49.456;10.644;2023-05-10T10:55:01;16.50;99.90
30069;DHT22;16894;49.456;10.644;2023-05-10T10:57:30;16.60;99.90
30069;DHT22;16894;49.456;10.644;2023-05-10T11:05:37;16.70;99.90
30069;DHT22;16894;49.456;10.644;2023-05-10T11:08:10;17.00;99.90
30069;DHT22;16894;49.456;10.644;2023-05-10T11:10:37;17.40;99.90
30069;DHT22;16894;49.456;10.644;2023-05-10T11:13:03;17.80;99.90
30069;DHT22;16894;49.456;10.644;2023-05-10T11:15:35;18.60;99.90
30069;DHT22;16894;49.456;10.644;2023-05-10T11:18:17;19.60;99.90
30069;DHT22;16894;49.456;10.644;2023-05-10T11:20:44;19.60;99.60
30069;DHT22;16894;49.456;10.644;2023-05-10T11:23:13;19.50;99.20
30069;DHT22;16894;49.456;10.644;2023-05-10T11:25:50;19.80;99.90
30069;DHT22;16894;49.456;10.644;2023-05-10T11:28:17;20.70;98.90
30069;DHT22;16894;49.456;10.644;2023-05-10T11:30:44;21.00;97.40
30069;DHT22;16894;49.456;10.644;2023-05-10T11:33:14;20.70;97.40
30069;DHT22;16894;49.456;10.644;2023-05-10T11:35:41;20.40;97.60
30069;DHT22;16894;49.456;10.644;2023-05-10T11:38:07;20.60;98.40
30069;DHT22;16894;49.456;10.644;2023-05-10T11:40:33;21.20;97.20
30069;DHT22;16894;49.456;10.644;2023-05-10T11:42:59;21.20;97.30
30069;DHT22;16894;49.456;10.644;2023-05-10T11:45:25;21.30;96.60
30069;DHT22;16894;49.456;10.644;2023-05-10T11:47:51;21.30;97.50
30069;DHT22;16894;49.456;10.644;2023-05-10T11:50:17;21.30;96.50
30069;DHT22;16894;49.456;10.644;2023-05-10T11:52:43;21.00;97.20
30069;DHT22;16894;49.456;10.644;2023-05-10T11:55:09;20.80;97.40
30069;DHT22;16894;49.456;10.644;2023-05-10T11:57:35;20.50;97.80
30069;DHT22;16894;49.456;10.644;2023-05-10T12:00:01;20.30;98.80
30069;DHT22;16894;49.456;10.644;2023-05-10T12:02:29;20.10;98.30
30069;DHT22;16894;49.456;10.644;2023-05-10T12:04:55;20.00;99.80
30069;DHT22;16894;49.456;10.644;2023-05-10T12:07:21;19.80;98.50
30069;DHT22;16894;49.456;10.644;2023-05-10T12:10:12;19.90;98.60
30069;DHT22;16894;49.456;10.644;2023-05-10T12:12:46;19.60;99.40
30069;DHT22;16894;49.456;10.644;2023-05-10T12:15:22;19.60;99.00
30069;DHT22;16894;49.456;10.644;2023-05-10T12:17:49;19.60;99.00
30069;DHT22;16894;49.456;10.644;2023-05-10T12:20:20;19.30;99.60
30069;DHT22;16894;49.456;10.644;2023-05-10T12:22:54;19.20;99.40
30069;DHT22;16894;49.456;10.644;2023-05-10T12:25:22;19.10;99.70
30069;DHT22;16894;49.456;10.644;2023-05-10T12:27:52;19.00;99.00
30069;DHT22;16894;49.456;10.644;2023-05-10T12:30:26;19.20;98.10
30069;DHT22;16894;49.456;10.644;2023-05-10T12:32:53;18.90;98.60
30069;DHT22;16894;49.456;10.644;2023-05-10T12:35:19;18.80;98.40
30069;DHT22;16894;49.456;10.644;2023-05-10T12:37:47;18.70;98.80
30069;DHT22;16894;49.456;10.644;2023-05-10T12:40:13;18.70;99.50
30069;DHT22;16894;49.456;10.644;2023-05-10T12:42:39;18.80;99.40
30069;DHT22;16894;49.456;10.644;2023-05-10T12:45:06;18.70;99.70
30069;DHT22;16894;49.456;10.644;2023-05-10T12:47:33;18.40;99.90
30069;DHT22;16894;49.456;10.644;2023-05-10T12:49:59;18.50;99.90
30069;DHT22;16894;49.456;10.644;2023-05-10T12:52:25;18.80;99.90
30069;DHT22;16894;49.456;10.644;2023-05-10T12:54:52;19.20;99.50
30069;DHT22;16894;49.456;10.644;2023-05-10T12:57:18;18.90;99.70
30069;DHT22;16894;49.456;10.644;2023-05-10T12:59:44;18.80;99.90
30069;DHT22;16894;49.456;10.644;2023-05-10T13:02:10;18.80;99.90
30069;DHT22;16894;49.456;10.644;2023-05-10T13:04:35;18.60;99.50
30069;DHT22;16894;49.456;10.644;2023-05-10T13:07:07;18.60;99.70
30069;DHT22;16894;49.456;10.644;2023-05-10T13:09:34;18.60;99.90
30069;DHT22;16894;49.456;10.644;2023-05-10T13:12:00;18.70;99.90
30069;DHT22;16894;49.456;10.644;2023-05-10T13:14:26;18.80;99.20
30069;DHT22;16894;49.456;10.644;2023-05-10T13:16:51;18.70;99.90
30069;DHT22;16894;49.456;10.644;2023-05-10T13:19:17;18.60;99.90
30069;DHT22;16894;49.456;10.644;2023-05-10T13:21:43;18.60;99.30
30069;DHT22;16894;49.456;10.644;2023-05-10T13:24:12;18.40;99.80
30069;DHT22;16894;49.456;10.644;2023-05-10T13:26:39;18.30;99.90
30069;DHT22;16894;49.456;10.644;2023-05-10T13:29:05;18.30;99.90
30069;DHT22;16894;49.456;10.644;2023-05-10T13:31:33;18.50;99.90
30069;DHT22;16894;49.456;10.644;2023-05-10T13:33:59;18.40;99.90
30069;DHT22;16894;49.456;10.644;2023-05-10T13:36:25;18.40;99.90
30069;DHT22;16894;49.456;10.644;2023-05-10T13:38:51;18.40;99.90
30069;DHT22;16894;49.456;10.644;2023-05-10T13:41:16;18.40;99.90
30069;DHT22;16894;49.456;10.644;2023-05-10T13:43:42;18.30;99.90
30069;DHT22;16894;49.456;10.644;2023-05-10T13:46:08;18.30;99.90
30069;DHT22;16894;49.456;10.644;2023-05-10T13:48:33;18.40;99.90
30069;DHT22;16894;49.456;10.644;2023-05-10T13:50:59;18.50;99.90
30069;DHT22;16894;49.456;10.644;2023-05-10T13:53:25;18.60;99.90
30069;DHT22;16894;49.456;10.644;2023-05-10T13:55:50;18.50;99.90
30069;DHT22;16894;49.456;10.644;2023-05-10T13:58:16;18.40;99.90
30069;DHT22;16894;49.456;10.644;2023-05-10T14:00:42;18.10;99.90
30069;DHT22;16894;49.456;10.644;2023-05-10T14:03:07;17.90;99.90
30069;DHT22;16894;49.456;10.644;2023-05-10T14:05:34;17.70;99.90
30069;DHT22;16894;49.456;10.644;2023-05-10T14:08:00;17.50;99.90
30069;DHT22;16894;49.456;10.644;2023-05-10T14:10:25;17.50;99.90
30069;DHT22;16894;49.456;10.644;2023-05-10T14:12:51;17.80;99.90
30069;DHT22;16894;49.456;10.644;2023-05-10T14:15:17;17.80;99.90
30069;DHT22;16894;49.456;10.644;2023-05-10T14:17:42;17.60;99.90
30069;DHT22;16894;49.456;10.644;2023-05-10T14:20:08;17.80;99.90
30069;DHT22;16894;49.456;10.644;2023-05-10T14:22:34;17.70;99.90
30069;DHT22;16894;49.456;10.644;2023-05-10T14:25:00;17.40;99.90
30069;DHT22;16894;49.456;10.644;2023-05-10T14:27:26;16.70;99.90
30069;DHT22;16894;49.456;10.644;2023-05-10T14:29:51;16.10;99.90
30069;DHT22;16894;49.456;10.644;2023-05-10T14:32:18;15.60;99.90
30069;DHT22;16894;49.456;10.644;2023-05-10T14:34:44;15.20;99.90
30069;DHT22;16894;49.456;10.644;2023-05-10T14:37:11;14.80;99.90
30069;DHT22;16894;49.456;10.644;2023-05-10T14:39:37;14.50;99.90
30069;DHT22;16894;49.456;10.644;2023-05-10T14:42:03;14.20;99.90
30069;DHT22;16894;49.456;10.644;2023-05-10T14:44:29;13.80;99.90
30069;DHT22;16894;49.456;10.644;2023-05-10T14:46:55;13.50;99.90
30069;DHT22;16894;49.456;10.644;2023-05-10T14:49:21;13.30;99.90
30069;DHT22;16894;49.456;10.644;2023-05-10T14:51:48;13.20;99.90
30069;DHT22;16894;49.456;10.644;2023-05-10T14:54:13;13.10;99.90
30069;DHT22;16894;49.456;10.644;2023-05-10T14:56:40;13.10;99.90
30069;DHT22;16894;49.456;10.644;2023-05-10T14:59:07;13.10;99.90
30069;DHT22;16894;49.456;10.644;2023-05-10T15:01:32;13.20;99.90
30069;DHT22;16894;49.456;10.644;2023-05-10T15:04:00;13.20;99.90
30069;DHT22;16894;49.456;10.644;2023-05-10T15:06:35;13.30;99.90
30069;DHT22;16894;49.456;10.644;2023-05-10T15:09:01;13.40;99.90
30069;DHT22;16894;49.456;10.644;2023-05-10T15:11:28;13.50;99.90
30069;DHT22;16894;49.456;10.644;2023-05-10T15:13:54;13.60;99.90
30069;DHT22;16894;49.456;10.644;2023-05-10T15:16:20;13.70;99.90
30069;DHT22;16894;49.456;10.644;2023-05-10T15:18:46;13.70;99.90
30069;DHT22;16894;49.456;10.644;2023-05-10T15:21:12;13.70;99.90
30069;DHT22;16894;49.456;10.644;2023-05-10T15:23:38;13.70;99.90
30069;DHT22;16894;49.456;10.644;2023-05-10T15:26:04;13.80;99.90
30069;DHT22;16894;49.456;10.644;2023-05-10T15:28:30;13.90;99.90
30069;DHT22;16894;49.456;10.644;2023-05-10T15:30:55;14.00;99.90
30069;DHT22;16894;49.456;10.644;2023-05-10T15:33:21;14.20;99.90
30069;DHT22;16894;49.456;10.644;2023-05-10T15:35:47;14.30;99.90
30069;DHT22;16894;49.456;10.644;2023-05-10T15:38:14;14.40;99.90
30069;DHT22;16894;49.456;10.644;2023-05-10T15:40:40;14.20;99.90
30069;DHT22;16894;49.456;10.644;2023-05-10T15:43:05;14.30;99.90
30069;DHT22;16894;49.456;10.644;2023-05-10T15:45:31;14.40;99.90
30069;DHT22;16894;49.456;10.644;2023-05-10T15:47:57;14.40;99.90
30069;DHT22;16894;49.456;10.644;2023-05-10T15:50:24;14.50;99.90
30069;DHT22;16894;49.456;10.644;2023-05-10T15:52:50;14.50;99.90